sensor_id;sensor_type;location;lat;lon;timestamp;pressure;altitude;pressure_sealevel;temperature;humidity
74542;BME280;63015;45.378;20.360;2023-03-14T00:01:43;100372.44;;;7.29;49.30
74542;BME280;63015;45.378;20.360;2023-03-14T00:03:44;100378.47;;;7.30;49.12
74542;BME280;63015;45.378;20.360;2023-03-14T00:05:44;100374.09;;;7.24;49.46
74542;BME280;63015;45.378;20.360;2023-03-14T00:07:45;100376.72;;;7.27;49.48
74542;BME280;63015;45.378;20.360;2023-03-14T00:09:45;100379.22;;;7.21;49.34
74542;BME280;63015;45.378;20.360;2023-03-14T00:11:46;100374.09;;;7.24;49.45
74542;BME280;63015;45.378;20.360;2023-03-14T00:13:48;100372.31;;;7.20;49.65
74542;BME280;63015;45.378;20.360;2023-03-14T00:15:49;100373.13;;;7.16;49.71
74542;BME280;63015;45.378;20.360;2023-03-14T00:17:49;100370.59;;;7.19;49.78
74542;BME280;63015;45.378;20.360;2023-03-14T00:19:50;100363.66;;;7.19;49.84
74542;BME280;63015;45.378;20.360;2023-03-14T00:21:52;100367.09;;;7.17;49.83
74542;BME280;63015;45.378;20.360;2023-03-14T00:23:53;100359.31;;;7.17;49.69
74542;BME280;63015;45.378;20.360;2023-03-14T00:25:57;100351.53;;;7.15;49.69
74542;BME280;63015;45.378;20.360;2023-03-14T00:27:58;100361.88;;;7.14;49.71
74542;BME280;63015;45.378;20.360;2023-03-14T00:29:58;100357.56;;;7.14;49.70
74542;BME280;63015;45.378;20.360;2023-03-14T00:31:59;100354.06;;;7.11;49.75
74542;BME280;63015;45.378;20.360;2023-03-14T00:33:59;100360.13;;;7.13;49.80
74542;BME280;63015;45.378;20.360;2023-03-14T00:36:05;100352.28;;;7.05;50.09
74542;BME280;63015;45.378;20.360;2023-03-14T00:38:06;100353.09;;;7.01;50.12
74542;BME280;63015;45.378;20.360;2023-03-14T00:40:07;100343.59;;;7.03;50.21
74542;BME280;63015;45.378;20.360;2023-03-14T00:42:08;100347.03;;;7.02;50.15
74542;BME280;63015;45.378;20.360;2023-03-14T00:44:08;100331.53;;;7.05;50.05
74542;BME280;63015;45.378;20.360;2023-03-14T00:46:09;100338.41;;;7.03;50.07
74542;BME280;63015;45.378;20.360;2023-03-14T00:48:10;100325.47;;;7.04;50.07
74542;BME280;63015;45.378;20.360;2023-03-14T00:50:11;100327.19;;;7.02;50.22
74542;BME280;63015;45.378;20.360;2023-03-14T00:52:12;100324.59;;;7.02;50.11
74542;BME280;63015;45.378;20.360;2023-03-14T00:54:13;100317.69;;;7.03;50.36
74542;BME280;63015;45.378;20.360;2023-03-14T00:56:13;100312.41;;;6.94;50.36
74542;BME280;63015;45.378;20.360;2023-03-14T00:58:16;100320.16;;;6.92;50.54
74542;BME280;63015;45.378;20.360;2023-03-14T01:00:17;100314.19;;;6.98;50.61
74542;BME280;63015;45.378;20.360;2023-03-14T01:02:17;100320.25;;;6.98;50.36
74542;BME280;63015;45.378;20.360;2023-03-14T01:04:18;100315.09;;;7.01;50.39
74542;BME280;63015;45.378;20.360;2023-03-14T01:06:21;100310.66;;;6.93;50.62
74542;BME280;63015;45.378;20.360;2023-03-14T01:08:22;100311.56;;;6.95;50.69
74542;BME280;63015;45.378;20.360;2023-03-14T01:10:23;100302.91;;;6.94;50.44
74542;BME280;63015;45.378;20.360;2023-03-14T01:12:23;100307.22;;;6.92;50.61
74542;BME280;63015;45.378;20.360;2023-03-14T01:14:24;100312.31;;;6.87;50.71
74542;BME280;63015;45.378;20.360;2023-03-14T01:16:30;100307.13;;;6.86;50.71
74542;BME280;63015;45.378;20.360;2023-03-14T01:18:35;100302.78;;;6.85;50.32
74542;BME280;63015;45.378;20.360;2023-03-14T01:20:36;100298.53;;;6.88;50.25
74542;BME280;63015;45.378;20.360;2023-03-14T01:22:38;100289.84;;;6.86;50.32
74542;BME280;63015;45.378;20.360;2023-03-14T01:24:39;100289.94;;;6.94;50.13
74542;BME280;63015;45.378;20.360;2023-03-14T01:26:40;100286.44;;;6.89;50.15
74542;BME280;63015;45.378;20.360;2023-03-14T01:28:42;100292.44;;;6.86;50.03
74542;BME280;63015;45.378;20.360;2023-03-14T01:30:43;100282.06;;;6.83;50.03
74542;BME280;63015;45.378;20.360;2023-03-14T01:32:43;100283.78;;;6.83;49.81
74542;BME280;63015;45.378;20.360;2023-03-14T01:34:44;100283.84;;;6.89;49.57
74542;BME280;63015;45.378;20.360;2023-03-14T01:36:45;100281.28;;;6.90;49.45
74542;BME280;63015;45.378;20.360;2023-03-14T01:38:46;100276.22;;;7.00;49.30
74542;BME280;63015;45.378;20.360;2023-03-14T01:40:49;100283.06;;;6.93;49.39
74542;BME280;63015;45.378;20.360;2023-03-14T01:42:57;100283.97;;;6.98;49.27
74542;BME280;63015;45.378;20.360;2023-03-14T01:45:00;100276.97;;;6.93;49.26
74542;BME280;63015;45.378;20.360;2023-03-14T01:47:01;100276.13;;;6.94;49.17
74542;BME280;63015;45.378;20.360;2023-03-14T01:49:29;100277.03;;;6.97;48.98
74542;BME280;63015;45.378;20.360;2023-03-14T01:51:52;100278.78;;;6.98;48.64
74542;BME280;63015;45.378;20.360;2023-03-14T01:54:02;100276.16;;;6.97;48.49
74542;BME280;63015;45.378;20.360;2023-03-14T01:56:07;100284.00;;;7.01;48.40
74542;BME280;63015;45.378;20.360;2023-03-14T01:58:08;100288.34;;;7.02;48.51
74542;BME280;63015;45.378;20.360;2023-03-14T02:00:14;100287.44;;;7.00;48.25
74542;BME280;63015;45.378;20.360;2023-03-14T02:02:17;100276.28;;;7.06;48.31
74542;BME280;63015;45.378;20.360;2023-03-14T02:04:19;100274.56;;;7.10;48.16
74542;BME280;63015;45.378;20.360;2023-03-14T02:06:24;100273.66;;;7.04;48.10
74542;BME280;63015;45.378;20.360;2023-03-14T02:08:31;100275.44;;;7.08;48.04
74542;BME280;63015;45.378;20.360;2023-03-14T02:10:43;100274.56;;;7.06;48.26
74542;BME280;63015;45.378;20.360;2023-03-14T02:12:47;100275.41;;;7.05;48.29
74542;BME280;63015;45.378;20.360;2023-03-14T02:15:08;100274.53;;;7.05;48.08
74542;BME280;63015;45.378;20.360;2023-03-14T02:17:24;100264.22;;;7.10;47.99
74542;BME280;63015;45.378;20.360;2023-03-14T02:22:28;100270.28;;;7.12;47.83
74542;BME280;63015;45.378;20.360;2023-03-14T02:24:43;100271.06;;;7.04;47.79
74542;BME280;63015;45.378;20.360;2023-03-14T02:29:12;100275.47;;;7.10;47.71
74542;BME280;63015;45.378;20.360;2023-03-14T02:31:14;100273.72;;;7.07;47.93
74542;BME280;63015;45.378;20.360;2023-03-14T02:33:17;100275.47;;;7.13;48.01
74542;BME280;63015;45.378;20.360;2023-03-14T02:35:21;100277.22;;;7.16;47.66
74542;BME280;63015;45.378;20.360;2023-03-14T02:37:27;100274.69;;;7.19;47.88
74542;BME280;63015;45.378;20.360;2023-03-14T02:39:42;100273.88;;;7.23;47.58
74542;BME280;63015;45.378;20.360;2023-03-14T02:41:45;100261.72;;;7.19;47.57
74542;BME280;63015;45.378;20.360;2023-03-14T02:43:47;100261.72;;;7.19;47.48
74542;BME280;63015;45.378;20.360;2023-03-14T02:45:50;100264.28;;;7.17;47.73
74542;BME280;63015;45.378;20.360;2023-03-14T02:47:59;100252.16;;;7.15;47.71
74542;BME280;63015;45.378;20.360;2023-03-14T02:50:09;100254.81;;;7.18;47.51
74542;BME280;63015;45.378;20.360;2023-03-14T02:52:10;100257.41;;;7.19;47.57
74542;BME280;63015;45.378;20.360;2023-03-14T02:54:11;100261.69;;;7.16;47.84
74542;BME280;63015;45.378;20.360;2023-03-14T02:56:12;100264.28;;;7.16;47.71
74542;BME280;63015;45.378;20.360;2023-03-14T02:58:12;100253.91;;;7.14;47.87
74542;BME280;63015;45.378;20.360;2023-03-14T03:00:13;100253.91;;;7.17;47.55
74542;BME280;63015;45.378;20.360;2023-03-14T03:02:15;100258.25;;;7.20;47.55
74542;BME280;63015;45.378;20.360;2023-03-14T03:04:15;100253.03;;;7.14;47.43
74542;BME280;63015;45.378;20.360;2023-03-14T03:06:19;100257.41;;;7.19;47.46
74542;BME280;63015;45.378;20.360;2023-03-14T03:08:21;100258.25;;;7.17;47.34
74542;BME280;63015;45.378;20.360;2023-03-14T03:10:23;100269.44;;;7.14;47.66
74542;BME280;63015;45.378;20.360;2023-03-14T03:12:24;100270.28;;;7.13;47.61
74542;BME280;63015;45.378;20.360;2023-03-14T03:14:24;100268.63;;;7.17;47.50
74542;BME280;63015;45.378;20.360;2023-03-14T03:16:25;100270.34;;;7.16;47.73
74542;BME280;63015;45.378;20.360;2023-03-14T03:18:25;100265.09;;;7.10;47.76
74542;BME280;63015;45.378;20.360;2023-03-14T03:20:26;100264.19;;;7.06;47.93
74542;BME280;63015;45.378;20.360;2023-03-14T03:22:27;100267.69;;;7.12;47.53
74542;BME280;63015;45.378;20.360;2023-03-14T03:24:27;100258.19;;;7.11;47.72
74542;BME280;63015;45.378;20.360;2023-03-14T03:26:28;100257.31;;;7.10;47.65
74542;BME280;63015;45.378;20.360;2023-03-14T03:28:29;100253.97;;;7.19;47.55
74542;BME280;63015;45.378;20.360;2023-03-14T03:30:31;100248.72;;;7.14;47.63
74542;BME280;63015;45.378;20.360;2023-03-14T03:32:32;100249.56;;;7.12;47.73
74542;BME280;63015;45.378;20.360;2023-03-14T03:34:32;100231.34;;;7.07;48.13
74542;BME280;63015;45.378;20.360;2023-03-14T03:36:34;100228.81;;;7.08;48.06
74542;BME280;63015;45.378;20.360;2023-03-14T03:38:34;100237.34;;;7.01;48.23
74542;BME280;63015;45.378;20.360;2023-03-14T03:40:38;100236.56;;;7.08;47.97
74542;BME280;63015;45.378;20.360;2023-03-14T03:42:39;100240.88;;;7.10;48.09
74542;BME280;63015;45.378;20.360;2023-03-14T03:44:43;100243.38;;;6.99;48.24
74542;BME280;63015;45.378;20.360;2023-03-14T03:46:44;100242.56;;;7.04;48.09
74542;BME280;63015;45.378;20.360;2023-03-14T03:48:45;100240.00;;;7.06;47.95
74542;BME280;63015;45.378;20.360;2023-03-14T03:50:46;100240.88;;;7.10;47.95
74542;BME280;63015;45.378;20.360;2023-03-14T03:52:48;100232.16;;;7.01;47.97
74542;BME280;63015;45.378;20.360;2023-03-14T03:54:49;100244.31;;;7.05;47.71
74542;BME280;63015;45.378;20.360;2023-03-14T03:56:49;100241.81;;;7.15;47.47
74542;BME280;63015;45.378;20.360;2023-03-14T03:58:50;100234.84;;;7.11;47.47
74542;BME280;63015;45.378;20.360;2023-03-14T04:00:51;100223.66;;;7.13;47.52
74542;BME280;63015;45.378;20.360;2023-03-14T04:02:51;100228.81;;;7.08;47.30
74542;BME280;63015;45.378;20.360;2023-03-14T04:04:53;100234.00;;;7.13;47.61
74542;BME280;63015;45.378;20.360;2023-03-14T04:06:53;100237.50;;;7.14;47.45
74542;BME280;63015;45.378;20.360;2023-03-14T04:08:54;100238.34;;;7.14;47.25
74542;BME280;63015;45.378;20.360;2023-03-14T04:11:05;100232.31;;;7.14;47.48
74542;BME280;63015;45.378;20.360;2023-03-14T04:13:27;100221.06;;;7.15;47.50
74542;BME280;63015;45.378;20.360;2023-03-14T04:15:29;100215.88;;;7.15;48.01
74542;BME280;63015;45.378;20.360;2023-03-14T04:17:30;100214.16;;;7.14;47.75
74542;BME280;63015;45.378;20.360;2023-03-14T04:19:30;100211.59;;;7.14;47.71
74542;BME280;63015;45.378;20.360;2023-03-14T04:21:31;100193.41;;;7.12;47.83
74542;BME280;63015;45.378;20.360;2023-03-14T04:23:32;100200.25;;;7.07;47.95
74542;BME280;63015;45.378;20.360;2023-03-14T04:25:33;100202.91;;;7.10;48.13
74542;BME280;63015;45.378;20.360;2023-03-14T04:27:37;100199.50;;;7.16;47.98
74542;BME280;63015;45.378;20.360;2023-03-14T04:29:44;100204.66;;;7.14;47.85
74542;BME280;63015;45.378;20.360;2023-03-14T04:31:47;100202.06;;;7.13;47.82
74542;BME280;63015;45.378;20.360;2023-03-14T04:33:48;100202.00;;;7.10;47.92
74542;BME280;63015;45.378;20.360;2023-03-14T04:35:55;100198.63;;;7.15;47.88
74542;BME280;63015;45.378;20.360;2023-03-14T04:37:55;100185.63;;;7.12;48.01
74542;BME280;63015;45.378;20.360;2023-03-14T04:39:57;100182.16;;;7.10;48.09
74542;BME280;63015;45.378;20.360;2023-03-14T04:42:00;100174.41;;;7.10;48.12
74542;BME280;63015;45.378;20.360;2023-03-14T04:44:01;100168.31;;;7.08;48.16
74542;BME280;63015;45.378;20.360;2023-03-14T04:46:01;100162.22;;;7.04;48.26
74542;BME280;63015;45.378;20.360;2023-03-14T04:48:02;100158.84;;;7.12;47.88
74542;BME280;63015;45.378;20.360;2023-03-14T04:50:04;100158.00;;;7.14;48.09
74542;BME280;63015;45.378;20.360;2023-03-14T04:52:05;100157.09;;;7.09;48.24
74542;BME280;63015;45.378;20.360;2023-03-14T04:54:08;100136.31;;;7.04;47.99
74542;BME280;63015;45.378;20.360;2023-03-14T04:56:09;100138.13;;;7.08;48.08
74542;BME280;63015;45.378;20.360;2023-03-14T04:58:12;100140.72;;;7.12;47.97
74542;BME280;63015;45.378;20.360;2023-03-14T05:00:14;100137.28;;;7.13;47.89
74542;BME280;63015;45.378;20.360;2023-03-14T05:02:22;100131.25;;;7.15;47.97
74542;BME280;63015;45.378;20.360;2023-03-14T05:04:35;100133.84;;;7.14;47.39
74542;BME280;63015;45.378;20.360;2023-03-14T05:06:51;100136.50;;;7.26;46.92
74542;BME280;63015;45.378;20.360;2023-03-14T05:09:15;100133.94;;;7.28;47.06
74542;BME280;63015;45.378;20.360;2023-03-14T05:11:36;100136.56;;;7.29;47.15
74542;BME280;63015;45.378;20.360;2023-03-14T05:14:03;100120.13;;;7.27;47.21
74542;BME280;63015;45.378;20.360;2023-03-14T05:16:32;100123.59;;;7.31;47.16
74542;BME280;63015;45.378;20.360;2023-03-14T05:18:44;100125.34;;;7.35;47.32
74542;BME280;63015;45.378;20.360;2023-03-14T05:20:52;100119.31;;;7.39;46.91
74542;BME280;63015;45.378;20.360;2023-03-14T05:23:08;100110.72;;;7.43;46.80
74542;BME280;63015;45.378;20.360;2023-03-14T05:25:27;100109.00;;;7.48;46.85
74542;BME280;63015;45.378;20.360;2023-03-14T05:27:46;100107.28;;;7.46;46.91
74542;BME280;63015;45.378;20.360;2023-03-14T05:30:00;100103.78;;;7.39;47.21
74542;BME280;63015;45.378;20.360;2023-03-14T05:32:27;100094.28;;;7.39;46.88
74542;BME280;63015;45.378;20.360;2023-03-14T05:34:48;100089.94;;;7.37;47.12
74542;BME280;63015;45.378;20.360;2023-03-14T05:37:01;100083.94;;;7.44;46.71
74542;BME280;63015;45.378;20.360;2023-03-14T05:39:22;100092.59;;;7.51;46.68
74542;BME280;63015;45.378;20.360;2023-03-14T05:41:44;100100.38;;;7.45;46.47
74542;BME280;63015;45.378;20.360;2023-03-14T05:43:58;100099.53;;;7.52;46.47
74542;BME280;63015;45.378;20.360;2023-03-14T05:46:09;100102.13;;;7.52;46.24
74542;BME280;63015;45.378;20.360;2023-03-14T05:48:24;100099.56;;;7.56;46.35
74542;BME280;63015;45.378;20.360;2023-03-14T05:50:38;100082.31;;;7.65;46.24
74542;BME280;63015;45.378;20.360;2023-03-14T05:52:54;100087.50;;;7.65;46.22
74542;BME280;63015;45.378;20.360;2023-03-14T05:55:08;100090.97;;;7.62;46.25
74542;BME280;63015;45.378;20.360;2023-03-14T05:57:31;100081.47;;;7.67;46.05
74542;BME280;63015;45.378;20.360;2023-03-14T05:59:55;100077.22;;;7.76;45.76
74542;BME280;63015;45.378;20.360;2023-03-14T06:02:22;100068.53;;;7.75;45.80
74542;BME280;63015;45.378;20.360;2023-03-14T06:04:33;100067.69;;;7.74;46.05
74542;BME280;63015;45.378;20.360;2023-03-14T06:06:33;100061.66;;;7.79;45.50
74542;BME280;63015;45.378;20.360;2023-03-14T06:08:35;100050.41;;;7.81;45.58
74542;BME280;63015;45.378;20.360;2023-03-14T06:10:37;100052.16;;;7.84;45.48
74542;BME280;63015;45.378;20.360;2023-03-14T06:12:38;100054.78;;;7.88;45.21
74542;BME280;63015;45.378;20.360;2023-03-14T06:14:38;100062.56;;;7.90;45.07
74542;BME280;63015;45.378;20.360;2023-03-14T06:16:39;100063.50;;;8.01;44.86
74542;BME280;63015;45.378;20.360;2023-03-14T06:18:40;100048.78;;;7.97;44.84
74542;BME280;63015;45.378;20.360;2023-03-14T06:20:43;100055.69;;;8.06;44.79
74542;BME280;63015;45.378;20.360;2023-03-14T06:22:47;100047.94;;;8.11;44.79
74542;BME280;63015;45.378;20.360;2023-03-14T06:24:48;100054.03;;;8.13;44.84
74542;BME280;63015;45.378;20.360;2023-03-14T06:26:50;100052.28;;;8.15;44.99
74542;BME280;63015;45.378;20.360;2023-03-14T06:28:51;100055.72;;;8.14;44.90
74542;BME280;63015;45.378;20.360;2023-03-14T06:30:51;100063.53;;;8.15;45.10
74542;BME280;63015;45.378;20.360;2023-03-14T06:32:53;100060.09;;;8.24;45.11
74542;BME280;63015;45.378;20.360;2023-03-14T06:34:55;100060.09;;;8.24;45.17
74542;BME280;63015;45.378;20.360;2023-03-14T06:37:01;100064.44;;;8.20;45.30
74542;BME280;63015;45.378;20.360;2023-03-14T06:39:03;100067.91;;;8.26;45.42
74542;BME280;63015;45.378;20.360;2023-03-14T06:41:07;100070.50;;;8.32;45.40
74542;BME280;63015;45.378;20.360;2023-03-14T06:43:16;100071.38;;;8.34;45.49
74542;BME280;63015;45.378;20.360;2023-03-14T06:45:19;100075.69;;;8.32;45.74
74542;BME280;63015;45.378;20.360;2023-03-14T06:47:21;100078.28;;;8.30;45.53
74542;BME280;63015;45.378;20.360;2023-03-14T06:49:22;100070.50;;;8.30;45.60
74542;BME280;63015;45.378;20.360;2023-03-14T06:51:28;100073.09;;;8.26;45.75
74542;BME280;63015;45.378;20.360;2023-03-14T06:53:28;100079.16;;;8.32;45.65
74542;BME280;63015;45.378;20.360;2023-03-14T06:55:33;100073.97;;;8.35;45.41
74542;BME280;63015;45.378;20.360;2023-03-14T06:57:33;100069.66;;;8.37;45.55
74542;BME280;63015;45.378;20.360;2023-03-14T06:59:34;100079.19;;;8.43;45.38
74542;BME280;63015;45.378;20.360;2023-03-14T07:01:34;100075.78;;;8.49;45.33
74542;BME280;63015;45.378;20.360;2023-03-14T07:03:40;100080.13;;;8.59;45.01
74542;BME280;63015;45.378;20.360;2023-03-14T07:05:41;100076.63;;;8.60;44.78
74542;BME280;63015;45.378;20.360;2023-03-14T07:07:41;100076.66;;;8.62;45.06
74542;BME280;63015;45.378;20.360;2023-03-14T07:09:42;100072.31;;;8.65;44.98
74542;BME280;63015;45.378;20.360;2023-03-14T07:11:43;100073.22;;;8.74;44.74
74542;BME280;63015;45.378;20.360;2023-03-14T07:13:44;100071.47;;;8.69;44.45
74542;BME280;63015;45.378;20.360;2023-03-14T07:15:45;100074.94;;;8.73;44.64
74542;BME280;63015;45.378;20.360;2023-03-14T07:17:46;100073.19;;;8.77;45.05
74542;BME280;63015;45.378;20.360;2023-03-14T07:19:48;100083.63;;;8.80;44.45
74542;BME280;63015;45.378;20.360;2023-03-14T07:21:49;100079.28;;;8.93;44.99
74542;BME280;63015;45.378;20.360;2023-03-14T07:23:54;100079.28;;;8.97;44.48
74542;BME280;63015;45.378;20.360;2023-03-14T07:25:56;100086.22;;;9.03;44.58
74542;BME280;63015;45.378;20.360;2023-03-14T07:27:59;100074.09;;;9.03;44.42
74542;BME280;63015;45.378;20.360;2023-03-14T07:29:59;100074.06;;;9.07;45.02
74542;BME280;63015;45.378;20.360;2023-03-14T07:32:00;100072.34;;;9.12;44.15
74542;BME280;63015;45.378;20.360;2023-03-14T07:34:00;100070.59;;;9.25;44.74
74542;BME280;63015;45.378;20.360;2023-03-14T07:36:05;100065.38;;;9.31;44.60
74542;BME280;63015;45.378;20.360;2023-03-14T07:38:06;100067.13;;;9.30;44.74
74542;BME280;63015;45.378;20.360;2023-03-14T07:40:12;100073.19;;;9.35;44.26
74542;BME280;63015;45.378;20.360;2023-03-14T07:42:18;100067.13;;;9.40;43.92
74542;BME280;63015;45.378;20.360;2023-03-14T07:44:41;100060.16;;;9.40;43.66
74542;BME280;63015;45.378;20.360;2023-03-14T07:46:41;100049.75;;;9.51;43.69
74542;BME280;63015;45.378;20.360;2023-03-14T07:48:42;100065.34;;;9.54;44.00
74542;BME280;63015;45.378;20.360;2023-03-14T07:50:43;100061.00;;;9.56;43.83
74542;BME280;63015;45.378;20.360;2023-03-14T07:52:43;100057.50;;;9.74;43.69
74542;BME280;63015;45.378;20.360;2023-03-14T07:54:44;100059.19;;;9.81;43.68
74542;BME280;63015;45.378;20.360;2023-03-14T07:56:44;100053.13;;;9.85;43.38
74542;BME280;63015;45.378;20.360;2023-03-14T07:58:45;100045.28;;;9.95;43.53
74542;BME280;63015;45.378;20.360;2023-03-14T08:00:45;100038.34;;;9.92;43.12
74542;BME280;63015;45.378;20.360;2023-03-14T08:02:46;100033.94;;;10.00;42.71
74542;BME280;63015;45.378;20.360;2023-03-14T08:04:46;100040.84;;;10.09;42.39
74542;BME280;63015;45.378;20.360;2023-03-14T08:06:47;100037.34;;;10.16;42.30
74542;BME280;63015;45.378;20.360;2023-03-14T08:08:47;100038.19;;;10.18;41.62
74542;BME280;63015;45.378;20.360;2023-03-14T08:10:47;100040.81;;;10.22;41.52
74542;BME280;63015;45.378;20.360;2023-03-14T08:12:54;100026.88;;;10.27;41.46
74542;BME280;63015;45.378;20.360;2023-03-14T08:14:55;100023.38;;;10.36;41.48
74542;BME280;63015;45.378;20.360;2023-03-14T08:16:55;100007.66;;;10.47;41.74
74542;BME280;63015;45.378;20.360;2023-03-14T08:18:56;100004.16;;;10.51;41.31
74542;BME280;63015;45.378;20.360;2023-03-14T08:20:57;100008.47;;;10.57;41.00
74542;BME280;63015;45.378;20.360;2023-03-14T08:22:59;99989.34;;;10.59;41.31
74542;BME280;63015;45.378;20.360;2023-03-14T08:25:00;99989.31;;;10.64;41.40
74542;BME280;63015;45.378;20.360;2023-03-14T08:27:01;99969.25;;;10.72;41.27
74542;BME280;63015;45.378;20.360;2023-03-14T08:29:01;99983.91;;;10.87;41.25
74542;BME280;63015;45.378;20.360;2023-03-14T08:31:03;99975.09;;;11.00;41.28
74542;BME280;63015;45.378;20.360;2023-03-14T08:33:03;99976.78;;;11.05;41.10
74542;BME280;63015;45.378;20.360;2023-03-14T08:35:05;99983.59;;;11.19;40.90
74542;BME280;63015;45.378;20.360;2023-03-14T08:37:06;99981.66;;;11.35;40.45
74542;BME280;63015;45.378;20.360;2023-03-14T08:39:07;99968.53;;;11.43;40.32
74542;BME280;63015;45.378;20.360;2023-03-14T08:41:08;99978.84;;;11.56;40.24
74542;BME280;63015;45.378;20.360;2023-03-14T08:43:08;99977.06;;;11.58;40.25
74542;BME280;63015;45.378;20.360;2023-03-14T08:45:12;99970.88;;;11.66;39.73
74542;BME280;63015;45.378;20.360;2023-03-14T08:47:13;99958.59;;;11.75;39.73
74542;BME280;63015;45.378;20.360;2023-03-14T08:49:13;99968.81;;;11.89;39.78
74542;BME280;63015;45.378;20.360;2023-03-14T08:51:15;99968.00;;;11.87;39.33
74542;BME280;63015;45.378;20.360;2023-03-14T08:53:15;99967.84;;;12.00;39.09
74542;BME280;63015;45.378;20.360;2023-03-14T08:55:16;99959.16;;;11.98;39.31
74542;BME280;63015;45.378;20.360;2023-03-14T08:57:17;99960.69;;;12.12;38.94
74542;BME280;63015;45.378;20.360;2023-03-14T08:59:17;99964.91;;;12.22;39.03
74542;BME280;63015;45.378;20.360;2023-03-14T09:01:18;99962.84;;;12.44;39.05
74542;BME280;63015;45.378;20.360;2023-03-14T09:03:19;99949.47;;;12.63;38.18
74542;BME280;63015;45.378;20.360;2023-03-14T09:05:20;99950.03;;;12.80;38.19
74542;BME280;63015;45.378;20.360;2023-03-14T09:07:20;99944.59;;;12.91;37.80
74542;BME280;63015;45.378;20.360;2023-03-14T09:09:21;99928.91;;;12.91;37.32
74542;BME280;63015;45.378;20.360;2023-03-14T09:11:22;99940.44;;;12.81;36.84
74542;BME280;63015;45.378;20.360;2023-03-14T09:13:23;99936.97;;;12.79;37.56
74542;BME280;63015;45.378;20.360;2023-03-14T09:15:24;99937.66;;;12.90;37.68
74542;BME280;63015;45.378;20.360;2023-03-14T09:17:24;99927.13;;;12.95;37.06
74542;BME280;63015;45.378;20.360;2023-03-14T09:19:25;99935.75;;;13.00;36.85
74542;BME280;63015;45.378;20.360;2023-03-14T09:21:26;99921.66;;;13.06;36.96
74542;BME280;63015;45.378;20.360;2023-03-14T09:23:27;99917.22;;;13.11;37.31
74542;BME280;63015;45.378;20.360;2023-03-14T09:25:28;99911.94;;;13.12;36.65
74542;BME280;63015;45.378;20.360;2023-03-14T09:27:28;99899.50;;;13.24;37.15
74542;BME280;63015;45.378;20.360;2023-03-14T09:29:29;99898.75;;;13.20;36.51
74542;BME280;63015;45.378;20.360;2023-03-14T09:31:29;99902.31;;;13.14;36.46
74542;BME280;63015;45.378;20.360;2023-03-14T09:33:30;99901.47;;;13.12;36.56
74542;BME280;63015;45.378;20.360;2023-03-14T09:35:30;99899.63;;;13.19;37.15
74542;BME280;63015;45.378;20.360;2023-03-14T09:37:33;99902.94;;;13.27;37.53
74542;BME280;63015;45.378;20.360;2023-03-14T09:39:33;99903.63;;;13.39;36.89
74542;BME280;63015;45.378;20.360;2023-03-14T09:41:37;99893.84;;;13.48;36.83
74542;BME280;63015;45.378;20.360;2023-03-14T09:43:40;99890.28;;;13.49;36.97
74542;BME280;63015;45.378;20.360;2023-03-14T09:45:44;99873.69;;;13.51;36.91
74542;BME280;63015;45.378;20.360;2023-03-14T09:47:46;99879.78;;;13.53;36.41
74542;BME280;63015;45.378;20.360;2023-03-14T09:49:47;99873.56;;;13.57;36.88
74542;BME280;63015;45.378;20.360;2023-03-14T09:51:50;99873.47;;;13.61;36.23
74542;BME280;63015;45.378;20.360;2023-03-14T09:53:51;99877.53;;;13.75;36.03
74542;BME280;63015;45.378;20.360;2023-03-14T09:55:53;99868.97;;;13.68;35.72
74542;BME280;63015;45.378;20.360;2023-03-14T09:57:59;99869.41;;;13.86;35.81
74542;BME280;63015;45.378;20.360;2023-03-14T10:00:05;99873.53;;;13.96;35.49
74542;BME280;63015;45.378;20.360;2023-03-14T10:02:18;99857.81;;;13.96;35.34
74542;BME280;63015;45.378;20.360;2023-03-14T10:04:22;99855.06;;;14.02;34.14
74542;BME280;63015;45.378;20.360;2023-03-14T10:06:27;99845.22;;;14.12;34.74
74542;BME280;63015;45.378;20.360;2023-03-14T10:08:27;99841.63;;;14.16;34.37
74542;BME280;63015;45.378;20.360;2023-03-14T10:10:28;99836.84;;;14.32;34.68
74542;BME280;63015;45.378;20.360;2023-03-14T10:12:36;99832.00;;;14.51;33.96
74542;BME280;63015;45.378;20.360;2023-03-14T10:14:45;99831.72;;;14.62;33.77
74542;BME280;63015;45.378;20.360;2023-03-14T10:16:46;99819.56;;;14.59;33.42
74542;BME280;63015;45.378;20.360;2023-03-14T10:18:47;99817.50;;;14.71;33.20
74542;BME280;63015;45.378;20.360;2023-03-14T10:20:48;99818.34;;;14.73;32.85
74542;BME280;63015;45.378;20.360;2023-03-14T10:22:50;99821.16;;;14.96;33.47
74542;BME280;63015;45.378;20.360;2023-03-14T10:24:56;99812.16;;;15.05;32.51
74542;BME280;63015;45.378;20.360;2023-03-14T10:27:10;99803.19;;;15.14;32.30
74542;BME280;63015;45.378;20.360;2023-03-14T10:29:18;99787.44;;;15.14;32.78
74542;BME280;63015;45.378;20.360;2023-03-14T10:31:24;99806.47;;;15.21;33.35
74542;BME280;63015;45.378;20.360;2023-03-14T10:33:33;99785.16;;;15.32;33.32
74542;BME280;63015;45.378;20.360;2023-03-14T10:35:35;99795.19;;;15.17;32.42
74542;BME280;63015;45.378;20.360;2023-03-14T10:37:35;99790.00;;;15.16;32.44
74542;BME280;63015;45.378;20.360;2023-03-14T10:39:50;99786.13;;;15.29;31.42
74542;BME280;63015;45.378;20.360;2023-03-14T10:42:02;99786.53;;;15.43;31.72
74542;BME280;63015;45.378;20.360;2023-03-14T10:44:12;99768.56;;;15.58;31.84
74542;BME280;63015;45.378;20.360;2023-03-14T10:46:16;99769.19;;;15.66;31.28
74542;BME280;63015;45.378;20.360;2023-03-14T10:48:37;99764.38;;;15.79;31.18
74542;BME280;63015;45.378;20.360;2023-03-14T10:50:58;99747.50;;;15.88;31.02
74542;BME280;63015;45.378;20.360;2023-03-14T10:53:03;99757.22;;;15.86;30.87
74542;BME280;63015;45.378;20.360;2023-03-14T10:55:13;99746.31;;;15.97;30.43